Time;durP1;ratioP1;P1;durP2;ratioP2;P2;SDS_P1;SDS_P2;PMS_P1;PMS_P2;Temp;Humidity;BMP_temperature;BMP_pressure;BME280_temperature;BME280_humidity;BME280_pressure;Samples;Min_cycle;Max_cycle;Signal;HPM_P1;HPM_P2
2023/01/31 00:01:13;;;;;;;17.90;5.18;;;;;;;5.41;67.15;102405.69;5051199;28;20094;-69
2023/01/31 00:03:39;;;;;;;17.75;4.90;;;;;;;5.43;67.00;102402.78;5049661;28;20484;-69
2023/01/31 00:06:11;;;;;;;17.17;5.05;;;;;;;5.46;67.01;102406.00;5050444;28;20033;-69
2023/01/31 00:08:37;;;;;;;22.65;4.80;;;;;;;5.44;67.34;102405.34;5047995;28;20036;-69
2023/01/31 00:11:02;;;;;;;23.40;4.88;;;;;;;5.44;67.32;102405.34;5029164;28;20045;-69
2023/01/31 00:13:28;;;;;;;19.15;4.45;;;;;;;5.46;67.02;102414.25;5045501;28;20033;-69
2023/01/31 00:15:56;;;;;;;16.25;5.10;;;;;;;5.44;67.35;102415.50;5049836;28;20041;-69
2023/01/31 00:18:22;;;;;;;15.40;4.80;;;;;;;5.40;67.31;102420.50;5050934;28;20029;-69
2023/01/31 00:20:47;;;;;;;24.33;6.22;;;;;;;5.40;67.16;102413.09;5049231;28;20417;-68
2023/01/31 00:23:12;;;;;;;18.40;5.00;;;;;;;5.38;66.98;102419.81;5048938;28;20036;-69
2023/01/31 00:25:37;;;;;;;21.83;5.82;;;;;;;5.37;66.88;102421.72;5042518;28;20021;-69
2023/01/31 00:28:03;;;;;;;20.88;4.88;;;;;;;5.35;67.43;102426.56;5047829;28;20124;-68
2023/01/31 00:30:28;;;;;;;23.20;5.50;;;;;;;5.39;67.35;102429.81;5048078;28;20037;-69
2023/01/31 00:32:54;;;;;;;17.33;4.25;;;;;;;5.36;67.24;102430.16;5048681;28;20480;-69
2023/01/31 00:35:19;;;;;;;17.95;5.00;;;;;;;5.33;67.60;102431.38;5050821;28;20032;-68
2023/01/31 00:37:44;;;;;;;21.27;5.03;;;;;;;5.34;67.83;102427.56;5050592;28;20175;-68
2023/01/31 00:40:10;;;;;;;18.35;4.95;;;;;;;5.42;67.18;102412.91;5049734;28;20032;-69
2023/01/31 00:42:35;;;;;;;18.90;5.05;;;;;;;5.36;67.59;102419.16;5042706;28;20407;-69
2023/01/31 00:45:01;;;;;;;19.65;4.90;;;;;;;5.41;67.32;102411.19;5050593;28;20052;-69
2023/01/31 00:47:26;;;;;;;18.50;4.80;;;;;;;5.39;67.72;102410.53;5047061;28;20115;-69
2023/01/31 00:49:51;;;;;;;24.27;5.30;;;;;;;5.38;67.21;102406.94;5049518;28;20036;-69
2023/01/31 00:52:16;;;;;;;22.48;5.50;;;;;;;5.38;67.31;102414.31;5038346;28;20051;-69
2023/01/31 00:54:42;;;;;;;23.20;5.80;;;;;;;5.38;67.53;102404.16;5049961;28;20036;-69
2023/01/31 00:57:07;;;;;;;20.27;5.05;;;;;;;5.36;67.68;102410.88;5044472;28;20071;-69
2023/01/31 00:59:32;;;;;;;24.58;5.65;;;;;;;5.37;67.39;102412.59;5046976;28;20033;-69
2023/01/31 01:01:57;;;;;;;12.77;4.82;;;;;;;5.33;67.58;102400.22;5051949;28;20106;-69
2023/01/31 01:04:23;;;;;;;23.75;7.20;;;;;;;5.31;67.63;102396.81;5054372;28;20605;-69
2023/01/31 01:06:49;;;;;;;16.85;4.97;;;;;;;5.31;67.57;102405.94;5053986;28;20108;-69
2023/01/31 01:09:15;;;;;;;23.63;5.78;;;;;;;5.33;67.47;102402.97;5053425;28;20039;-69
2023/01/31 01:11:40;;;;;;;21.63;5.35;;;;;;;5.30;67.99;102393.19;5054185;28;20033;-69
2023/01/31 01:14:05;;;;;;;18.65;5.57;;;;;;;5.33;67.73;102392.81;5045645;28;20079;-69
2023/01/31 01:16:37;;;;;;;26.17;6.22;;;;;;;5.29;68.18;102390.63;5045205;28;20392;-69
2023/01/31 01:19:11;;;;;;;18.58;5.68;;;;;;;5.30;67.85;102384.06;5054141;28;20134;-69
2023/01/31 01:21:39;;;;;;;25.42;5.93;;;;;;;5.24;67.97;102373.78;5053860;28;20027;-69
2023/01/31 01:24:11;;;;;;;22.60;5.78;;;;;;;5.25;67.87;102373.59;5051286;28;20037;-69
2023/01/31 01:26:36;;;;;;;23.80;5.93;;;;;;;5.28;68.00;102359.47;5052424;28;20083;-69
2023/01/31 01:29:01;;;;;;;15.65;5.57;;;;;;;5.23;68.09;102356.41;5053266;28;20021;-69
2023/01/31 01:31:30;;;;;;;20.75;5.72;;;;;;;5.22;68.09;102364.84;5041596;28;20117;-69
2023/01/31 01:34:01;;;;;;;21.77;5.90;;;;;;;5.22;68.00;102362.09;5048449;28;20029;-70
2023/01/31 01:36:27;;;;;;;23.65;5.82;;;;;;;5.21;68.04;102357.63;5052910;28;20468;-69
2023/01/31 01:38:53;;;;;;;21.90;6.90;;;;;;;5.21;68.56;102363.13;5053452;28;20049;-69
2023/01/31 01:41:20;;;;;;;23.15;6.97;;;;;;;5.21;68.12;102358.47;5052555;28;20036;-69
2023/01/31 01:43:47;;;;;;;23.48;6.93;;;;;;;5.25;68.30;102361.72;5052600;28;20407;-69
2023/01/31 01:46:27;;;;;;;24.75;7.28;;;;;;;5.26;68.15;102363.44;5052354;28;20033;-69
2023/01/31 01:49:15;;;;;;;19.77;6.32;;;;;;;5.29;68.12;102357.56;5030831;28;20033;-69
2023/01/31 01:51:43;;;;;;;22.98;6.90;;;;;;;5.22;68.17;102346.41;5040958;28;20039;-69
2023/01/31 01:54:15;;;;;;;21.83;7.22;;;;;;;5.23;68.07;102347.31;5053094;28;20495;-69
2023/01/31 01:56:44;;;;;;;24.80;7.35;;;;;;;5.24;68.24;102346.25;5053705;28;20035;-69
2023/01/31 01:59:17;;;;;;;25.58;7.25;;;;;;;5.22;68.33;102346.41;5050657;28;20409;-69
2023/01/31 02:01:45;;;;;;;29.52;7.60;;;;;;;5.22;68.47;102345.56;5051225;28;20378;-69
2023/01/31 02:04:14;;;;;;;21.80;7.03;;;;;;;5.17;68.49;102344.22;5052355;28;20469;-69
2023/01/31 02:06:40;;;;;;;23.27;7.47;;;;;;;5.17;68.47;102354.38;5041227;28;20068;-69
2023/01/31 02:09:10;;;;;;;18.77;7.40;;;;;;;5.16;68.32;102359.03;5050648;28;20061;-70
2023/01/31 02:11:36;;;;;;;27.48;8.27;;;;;;;5.17;68.37;102360.72;5052314;28;20028;-69
2023/01/31 02:14:05;;;;;;;23.75;7.82;;;;;;;5.15;68.46;102367.47;5052279;28;20059;-69
2023/01/31 02:16:30;;;;;;;27.67;7.88;;;;;;;5.10;68.50;102365.25;5053273;28;20325;-69
2023/01/31 02:18:56;;;;;;;26.67;7.35;;;;;;;5.10;68.65;102362.50;5052322;28;20477;-69
2023/01/31 02:21:37;;;;;;;19.85;7.20;;;;;;;5.04;68.90;102363.22;5053168;28;20037;-70
2023/01/31 02:24:24;;;;;;;18.23;7.32;;;;;;;5.05;68.89;102369.59;5044896;28;20388;-69
2023/01/31 02:27:22;;;;;;;26.52;8.15;;;;;;;5.12;69.18;102373.34;5050922;28;21860;-69
2023/01/31 02:30:12;;;;;;;25.23;8.93;;;;;;;5.11;69.09;102380.75;5051578;28;20029;-69
2023/01/31 02:32:58;;;;;;;22.17;7.68;;;;;;;5.08;69.02;102378.34;5051764;28;20029;-68
2023/01/31 02:35:23;;;;;;;23.77;8.07;;;;;;;5.05;69.03;102372.34;5046476;28;20397;-69
2023/01/31 02:38:19;;;;;;;25.27;8.18;;;;;;;5.06;69.06;102369.38;5048110;28;20033;-70
2023/01/31 02:41:08;;;;;;;20.75;7.80;;;;;;;5.07;69.44;102365.63;5038230;28;20056;-69
2023/01/31 02:46:44;;;;;;;26.23;8.73;;;;;;;5.04;69.61;102357.72;5049551;28;20080;-69
2023/01/31 02:49:35;;;;;;;25.30;8.40;;;;;;;5.08;69.73;102363.72;5050935;28;20031;-69
2023/01/31 02:52:23;;;;;;;36.22;9.23;;;;;;;5.08;69.62;102361.81;5048957;28;20103;-69
2023/01/31 02:57:42;;;;;;;27.85;10.15;;;;;;;4.98;70.29;102354.81;5029945;28;20048;-69
2023/01/31 03:00:09;;;;;;;23.70;8.57;;;;;;;4.98;69.91;102363.94;5040833;28;20024;-69
2023/01/31 03:02:34;;;;;;;31.30;9.95;;;;;;;5.00;70.01;102367.38;5047210;28;20041;-69
2023/01/31 03:04:59;;;;;;;33.40;9.50;;;;;;;5.02;70.17;102370.78;5050337;28;20171;-69
2023/01/31 03:07:32;;;;;;;24.83;9.60;;;;;;;5.03;70.11;102367.03;5049300;28;20025;-69
2023/01/31 03:10:00;;;;;;;30.25;11.00;;;;;;;5.00;70.46;102359.13;5051040;28;20033;-70
2023/01/31 03:12:35;;;;;;;32.53;11.55;;;;;;;5.01;70.70;102357.22;5046989;28;20035;-70
2023/01/31 03:15:09;;;;;;;24.35;9.98;;;;;;;5.02;70.55;102350.66;5042517;28;20057;-69
2023/01/31 03:18:00;;;;;;;27.23;10.57;;;;;;;5.02;70.57;102350.66;5040778;28;20067;-69
2023/01/31 03:20:39;;;;;;;33.08;11.50;;;;;;;5.02;70.85;102353.44;5048081;28;20374;-70
2023/01/31 03:23:10;;;;;;;25.02;10.52;;;;;;;5.01;70.91;102344.31;5048396;28;20032;-69
2023/01/31 03:25:37;;;;;;;32.97;11.55;;;;;;;4.98;70.86;102343.81;5050809;28;20064;-69
2023/01/31 03:28:08;;;;;;;25.55;10.63;;;;;;;4.97;71.09;102345.72;5049633;28;20120;-69
2023/01/31 03:30:50;;;;;;;30.27;10.82;;;;;;;4.99;71.11;102335.41;5046476;28;20072;-69
2023/01/31 03:33:24;;;;;;;26.02;11.02;;;;;;;5.00;71.08;102341.75;5042218;28;20132;-69
2023/01/31 03:35:58;;;;;;;26.30;10.73;;;;;;;4.98;70.96;102341.91;5042315;28;20036;-69
2023/01/31 03:38:33;;;;;;;30.73;11.40;;;;;;;5.01;71.34;102336.06;5049513;28;20045;-69
2023/01/31 03:41:10;;;;;;;28.10;12.02;;;;;;;5.01;71.75;102327.81;5050298;28;20151;-69
2023/01/31 03:43:55;;;;;;;24.70;11.32;;;;;;;5.06;71.23;102328.09;5048887;28;20754;-69
2023/01/31 03:46:29;;;;;;;28.42;11.52;;;;;;;5.03;72.05;102328.50;5046789;28;20131;-69
2023/01/31 03:48:57;;;;;;;31.15;11.45;;;;;;;5.03;71.83;102320.25;5047353;28;20522;-69
2023/01/31 03:51:28;;;;;;;28.67;11.57;;;;;;;5.03;71.54;102324.84;5044116;28;20497;-69
2023/01/31 03:54:02;;;;;;;32.55;12.48;;;;;;;4.95;72.48;102322.16;5045998;28;20112;-69
2023/01/31 03:56:35;;;;;;;31.88;11.98;;;;;;;5.00;72.06;102326.09;5047675;28;20029;-69
2023/01/31 03:59:11;;;;;;;33.65;12.90;;;;;;;5.03;72.44;102323.00;5038351;28;20040;-69
2023/01/31 04:01:41;;;;;;;27.65;12.32;;;;;;;5.04;72.40;102315.59;5038844;28;20029;-69
2023/01/31 04:04:10;;;;;;;28.27;12.07;;;;;;;5.05;72.62;102318.16;5039706;28;20385;-69
2023/01/31 04:06:36;;;;;;;29.33;12.13;;;;;;;5.06;72.34;102314.34;5044661;28;20064;-69
2023/01/31 04:09:01;;;;;;;29.70;11.82;;;;;;;5.09;72.08;102313.13;5039870;28;20035;-69
2023/01/31 04:11:27;;;;;;;31.65;11.60;;;;;;;5.07;72.34;102324.34;5043425;28;20029;-69
2023/01/31 04:13:52;;;;;;;32.13;12.18;;;;;;;5.07;72.35;102321.59;5047452;28;20120;-69
2023/01/31 04:16:18;;;;;;;33.40;12.68;;;;;;;5.08;71.97;102317.78;5048935;28;20029;-70
2023/01/31 04:18:43;;;;;;;26.27;12.23;;;;;;;5.10;72.43;102315.69;5047116;28;20037;-69
2023/01/31 04:21:08;;;;;;;29.55;11.93;;;;;;;5.10;72.13;102312.09;5045165;28;20075;-69
2023/01/31 04:23:34;;;;;;;27.10;11.52;;;;;;;5.13;71.94;102307.09;5043078;28;20041;-69
2023/01/31 04:26:00;;;;;;;28.75;11.65;;;;;;;5.05;72.33;102311.78;5038330;28;20135;-69
2023/01/31 04:28:25;;;;;;;31.17;12.30;;;;;;;5.07;72.42;102306.94;5047350;28;20108;-69
2023/01/31 04:30:53;;;;;;;30.40;11.95;;;;;;;5.08;72.08;102311.44;5048741;28;20499;-69
2023/01/31 04:33:18;;;;;;;30.80;12.00;;;;;;;5.07;72.39;102296.81;5047649;28;20067;-69
2023/01/31 04:35:43;;;;;;;26.92;11.98;;;;;;;5.05;72.02;102306.28;5049430;28;20036;-70
2023/01/31 04:38:09;;;;;;;25.20;11.38;;;;;;;5.06;72.59;102308.84;5048620;28;20071;-69
2023/01/31 04:40:34;;;;;;;23.25;11.02;;;;;;;5.09;72.50;102303.00;5042033;28;20496;-70
2023/01/31 04:42:59;;;;;;;29.83;12.15;;;;;;;5.12;71.86;102301.78;5029707;28;20037;-69
2023/01/31 04:45:24;;;;;;;30.30;11.55;;;;;;;5.08;72.11;102306.78;5030606;28;20451;-70
2023/01/31 04:47:50;;;;;;;31.63;11.63;;;;;;;5.03;71.90;102298.22;5029748;28;20037;-70
2023/01/31 04:50:15;;;;;;;26.98;12.23;;;;;;;5.04;72.28;102302.69;5030179;28;20029;-69
2023/01/31 04:52:40;;;;;;;28.00;11.27;;;;;;;5.08;71.70;102292.16;5030471;28;20110;-70
2023/01/31 04:55:06;;;;;;;26.65;11.57;;;;;;;5.05;72.12;102292.53;5045403;28;20078;-69
2023/01/31 04:57:32;;;;;;;24.83;10.63;;;;;;;5.04;72.04;102286.16;5040566;28;20041;-69
2023/01/31 04:59:57;;;;;;;27.42;11.68;;;;;;;5.04;72.33;102283.41;5050271;28;20021;-70
2023/01/31 05:02:22;;;;;;;29.65;12.13;;;;;;;5.02;72.45;102268.13;5048472;28;20060;-69
2023/01/31 05:04:48;;;;;;;30.20;11.60;;;;;;;5.00;71.96;102281.22;5049118;28;20036;-69
2023/01/31 05:07:13;;;;;;;23.75;11.25;;;;;;;5.01;72.29;102271.91;5049181;28;20175;-69
2023/01/31 05:09:41;;;;;;;28.25;11.90;;;;;;;5.01;72.34;102266.41;5049186;28;20075;-69
2023/01/31 05:12:07;;;;;;;24.60;12.20;;;;;;;4.99;72.19;102262.97;5049135;28;20036;-69
2023/01/31 05:14:32;;;;;;;23.90;11.05;;;;;;;5.00;71.85;102271.06;5041009;28;20028;-69
2023/01/31 05:16:58;;;;;;;33.33;11.30;;;;;;;5.00;72.18;102273.81;5039898;28;20060;-69
2023/01/31 05:19:23;;;;;;;22.02;11.23;;;;;;;4.98;72.46;102267.63;5048744;28;20069;-69
2023/01/31 05:21:54;;;;;;;28.73;11.52;;;;;;;5.03;72.23;102253.31;5049638;28;20025;-69
2023/01/31 05:24:24;;;;;;;28.02;11.63;;;;;;;5.00;72.20;102256.44;5048759;28;20495;-68
2023/01/31 05:26:51;;;;;;;29.00;12.10;;;;;;;5.01;71.78;102255.41;5047951;28;20072;-69
2023/01/31 05:29:18;;;;;;;29.48;11.18;;;;;;;4.95;72.42;102251.47;5049554;28;20025;-69
2023/01/31 05:31:43;;;;;;;29.05;11.07;;;;;;;4.96;72.79;102252.34;5049585;28;20025;-69
2023/01/31 05:34:10;;;;;;;32.13;11.82;;;;;;;4.94;72.48;102252.50;5038395;28;20636;-69
2023/01/31 05:36:36;;;;;;;25.42;11.45;;;;;;;4.95;72.55;102254.22;5048233;28;20029;-69
2023/01/31 05:39:01;;;;;;;24.85;10.95;;;;;;;4.97;72.67;102252.16;5045684;28;20045;-69
2023/01/31 05:41:26;;;;;;;28.77;12.00;;;;;;;5.00;72.36;102237.19;5049768;28;20033;-69
2023/01/31 05:43:51;;;;;;;28.10;11.38;;;;;;;5.01;72.12;102234.25;5044455;28;20047;-70
2023/01/31 05:46:17;;;;;;;25.55;10.07;;;;;;;4.98;72.41;102240.09;5052356;28;20025;-69
2023/01/31 05:48:42;;;;;;;30.90;11.32;;;;;;;5.03;72.23;102242.31;5051692;28;20065;-69
2023/01/31 05:51:07;;;;;;;25.05;10.50;;;;;;;5.02;72.11;102246.94;5046787;28;20054;-69
2023/01/31 05:53:32;;;;;;;27.20;10.85;;;;;;;5.00;72.06;102237.19;5046318;28;20526;-69
2023/01/31 05:55:58;;;;;;;30.85;11.20;;;;;;;5.03;72.20;102236.78;5052060;28;20029;-69
2023/01/31 05:58:23;;;;;;;34.92;11.60;;;;;;;5.01;71.96;102233.38;5052664;28;20393;-69
2023/01/31 06:00:48;;;;;;;24.60;10.30;;;;;;;5.01;71.90;102233.38;5048610;28;20022;-68
2023/01/31 06:03:14;;;;;;;26.75;11.13;;;;;;;4.99;72.07;102232.69;5030417;28;20096;-69
2023/01/31 06:05:39;;;;;;;30.50;10.82;;;;;;;5.01;72.01;102239.75;5045280;28;20056;-68
2023/01/31 06:08:05;;;;;;;32.72;11.05;;;;;;;5.06;71.79;102248.31;5051434;28;20074;-69
2023/01/31 06:10:30;;;;;;;26.02;10.50;;;;;;;5.06;72.12;102252.94;5038910;28;20477;-68
2023/01/31 06:12:56;;;;;;;23.80;10.20;;;;;;;5.04;71.94;102244.91;5043597;28;20044;-69
2023/01/31 06:15:21;;;;;;;26.17;10.07;;;;;;;5.08;71.60;102240.72;5049688;28;20075;-69
2023/01/31 06:17:49;;;;;;;28.15;10.40;;;;;;;5.07;71.74;102239.03;5038716;28;20497;-69
2023/01/31 06:20:15;;;;;;;34.70;10.80;;;;;;;5.09;71.75;102247.94;5035228;28;20029;-69
2023/01/31 06:22:41;;;;;;;25.67;11.27;;;;;;;5.09;71.42;102241.59;5049271;28;20610;-69
2023/01/31 06:25:07;;;;;;;27.42;10.20;;;;;;;5.12;71.85;102228.31;5042087;28;20068;-69
2023/01/31 06:27:33;;;;;;;23.65;10.20;;;;;;;5.10;71.45;102249.66;5049862;28;20047;-69
2023/01/31 06:29:58;;;;;;;33.58;10.82;;;;;;;5.11;71.54;102245.03;5050370;28;20021;-69
2023/01/31 06:32:23;;;;;;;25.60;10.60;;;;;;;5.12;71.78;102235.72;5041857;28;20063;-69
2023/01/31 06:34:49;;;;;;;25.55;9.93;;;;;;;5.15;71.49;102244.47;5050077;28;20029;-69
2023/01/31 06:37:14;;;;;;;31.67;10.05;;;;;;;5.08;71.27;102240.72;5043575;28;20716;-69
2023/01/31 06:39:39;;;;;;;29.17;9.90;;;;;;;5.10;71.76;102226.78;5049252;28;20477;-69
2023/01/31 06:42:05;;;;;;;26.88;9.85;;;;;;;5.08;71.31;102228.88;5051068;28;20068;-69
2023/01/31 06:44:32;;;;;;;21.27;9.52;;;;;;;5.08;71.54;102226.97;5049393;28;20558;-69
2023/01/31 06:46:58;;;;;;;35.38;10.68;;;;;;;5.07;71.66;102236.28;5048763;28;20029;-70
2023/01/31 06:49:23;;;;;;;23.05;9.85;;;;;;;5.08;71.86;102218.72;5030246;28;20477;-69
2023/01/31 06:51:49;;;;;;;23.90;8.68;;;;;;;5.10;71.56;102219.38;5031055;28;20041;-69
2023/01/31 06:54:14;;;;;;;27.98;9.85;;;;;;;5.10;71.93;102216.63;5046334;28;20037;-69
2023/01/31 06:56:39;;;;;;;22.75;9.02;;;;;;;5.09;71.98;102217.66;5042023;28;20033;-69
2023/01/31 06:59:04;;;;;;;21.05;8.55;;;;;;;5.11;71.67;102217.50;5050772;28;20075;-70
2023/01/31 07:01:30;;;;;;;23.27;9.50;;;;;;;5.09;71.89;102219.56;5045111;28;20381;-69
2023/01/31 07:03:55;;;;;;;25.70;9.70;;;;;;;5.09;71.95;102217.66;5048950;28;20037;-70
2023/01/31 07:06:21;;;;;;;23.05;9.50;;;;;;;5.09;71.82;102214.91;5048339;28;20079;-72
2023/01/31 07:08:47;;;;;;;21.95;8.68;;;;;;;5.11;72.10;102218.34;5049076;28;20144;-71
2023/01/31 07:11:12;;;;;;;26.08;9.93;;;;;;;5.15;72.20;102210.59;5048937;28;20120;-72
2023/01/31 07:13:38;;;;;;;30.98;9.80;;;;;;;5.15;71.82;102221.59;5033176;28;20073;-71
2023/01/31 07:16:03;;;;;;;19.38;8.80;;;;;;;5.16;71.90;102215.03;5045734;28;20092;-71
2023/01/31 07:18:28;;;;;;;24.83;9.00;;;;;;;5.15;72.22;102208.69;5035753;28;20069;-71
2023/01/31 07:20:54;;;;;;;18.38;8.55;;;;;;;5.17;72.42;102203.84;5048487;28;20055;-71
2023/01/31 07:23:19;;;;;;;21.25;9.13;;;;;;;5.17;72.04;102201.09;5044625;28;20037;-71
2023/01/31 07:25:44;;;;;;;17.10;7.88;;;;;;;5.19;71.93;102195.41;5050602;28;20100;-71
2023/01/31 07:28:10;;;;;;;22.80;8.88;;;;;;;5.22;71.82;102202.44;5050723;28;20559;-71
2023/01/31 07:30:36;;;;;;;25.02;8.85;;;;;;;5.20;72.07;102202.63;5045758;28;20112;-70
2023/01/31 07:33:01;;;;;;;25.13;8.23;;;;;;;5.23;71.87;102198.66;5039083;28;20029;-69
2023/01/31 07:35:27;;;;;;;18.20;8.43;;;;;;;5.20;72.33;102196.28;5047301;28;20132;-68
2023/01/31 07:37:53;;;;;;;24.77;8.68;;;;;;;5.17;72.12;102194.72;5046872;28;20093;-68
2023/01/31 07:40:19;;;;;;;26.73;8.95;;;;;;;5.23;72.08;102195.91;5047528;28;20033;-68
2023/01/31 07:42:47;;;;;;;23.00;8.32;;;;;;;5.24;72.60;102197.63;5044815;28;20068;-67
2023/01/31 07:45:14;;;;;;;23.35;7.97;;;;;;;5.22;72.50;102191.41;5046617;28;20476;-71
2023/01/31 07:47:41;;;;;;;21.83;8.30;;;;;;;5.22;72.52;102189.53;5036513;28;20492;-70
2023/01/31 07:50:12;;;;;;;19.17;8.18;;;;;;;5.20;72.59;102194.38;5027744;28;20025;-68
2023/01/31 07:52:37;;;;;;;22.23;7.80;;;;;;;5.26;72.55;102181.75;5034848;28;20090;-69
2023/01/31 07:55:03;;;;;;;19.55;8.10;;;;;;;5.26;71.93;102179.00;5048000;28;20041;-68
2023/01/31 07:57:30;;;;;;;24.52;8.45;;;;;;;5.22;72.28;102175.75;5046190;28;20063;-68
2023/01/31 07:59:56;;;;;;;20.45;8.40;;;;;;;5.18;72.44;102177.16;5045903;28;20299;-69
2023/01/31 08:05:05;;;;;;;23.52;7.85;;;;;;;5.24;72.76;102173.69;5040125;28;20188;-66
2023/01/31 08:07:36;;;;;;;22.77;8.65;;;;;;;5.28;72.77;102163.16;5041263;28;20174;-68
2023/01/31 08:10:02;;;;;;;23.05;8.20;;;;;;;5.31;72.49;102173.81;5040692;28;20051;-70
2023/01/31 08:12:28;;;;;;;25.25;8.82;;;;;;;5.32;72.34;102159.00;5037626;28;20385;-61
2023/01/31 08:14:53;;;;;;;17.15;7.80;;;;;;;5.38;71.71;102158.22;5042627;28;20049;-68
2023/01/31 08:17:18;;;;;;;20.38;8.05;;;;;;;5.37;72.35;102153.78;5041008;28;20025;-70
2023/01/31 08:19:44;;;;;;;18.88;7.93;;;;;;;5.36;72.07;102171.34;5047582;28;20033;-68
2023/01/31 08:22:09;;;;;;;16.90;7.65;;;;;;;5.36;72.26;102154.81;5042148;28;20116;-68
2023/01/31 08:24:34;;;;;;;23.92;9.23;;;;;;;5.35;72.49;102155.88;5031301;28;20391;-70
2023/01/31 08:27:00;;;;;;;23.50;9.38;;;;;;;5.34;72.51;102162.41;5029207;28;20373;-67
2023/01/31 08:29:26;;;;;;;23.80;8.70;;;;;;;5.35;72.42;102159.47;5047042;28;20029;-72
2023/01/31 08:31:51;;;;;;;23.58;8.18;;;;;;;5.35;72.30;102153.97;5044751;28;20047;-70
2023/01/31 08:34:17;;;;;;;22.13;8.30;;;;;;;5.37;72.63;102134.50;5047835;28;20040;-69
2023/01/31 08:36:42;;;;;;;22.25;8.02;;;;;;;5.41;72.60;102146.84;5049426;28;20090;-69
2023/01/31 08:39:08;;;;;;;19.60;8.68;;;;;;;5.44;72.64;102138.22;5037443;28;20121;-70
2023/01/31 08:41:35;;;;;;;20.85;9.75;;;;;;;5.41;72.84;102133.09;5045464;28;20025;-71
2023/01/31 08:44:02;;;;;;;19.10;8.07;;;;;;;5.43;72.66;102139.28;5043909;28;20025;-69
2023/01/31 08:46:30;;;;;;;21.77;8.35;;;;;;;5.47;72.92;102134.25;5038685;28;20036;-69
2023/01/31 08:48:59;;;;;;;22.55;10.10;;;;;;;5.50;72.50;102122.84;5043609;28;20488;-69
2023/01/31 08:51:25;;;;;;;18.58;7.18;;;;;;;5.45;72.61;102134.41;5049332;28;20041;-70
2023/01/31 08:53:50;;;;;;;23.35;9.13;;;;;;;5.47;73.01;102128.75;5045936;28;20032;-70
2023/01/31 08:56:16;;;;;;;27.83;9.10;;;;;;;5.50;72.74;102120.97;5046240;28;20052;-70
2023/01/31 08:58:43;;;;;;;21.20;8.82;;;;;;;5.53;72.61;102117.81;5039558;28;20241;-67
2023/01/31 09:01:14;;;;;;;22.85;10.25;;;;;;;5.55;72.78;102115.72;5045422;28;20579;-67
2023/01/31 09:03:40;;;;;;;25.77;10.15;;;;;;;5.61;73.23;102108.59;5044437;28;20112;-67
2023/01/31 09:06:10;;;;;;;17.98;7.28;;;;;;;5.59;73.58;102110.69;5032717;28;20818;-68
2023/01/31 09:08:35;;;;;;;21.23;8.02;;;;;;;5.67;72.85;102102.34;5048521;28;20496;-67
2023/01/31 09:11:00;;;;;;;19.88;8.35;;;;;;;5.70;73.08;102103.84;5047600;28;20075;-67
2023/01/31 09:13:27;;;;;;;18.10;7.00;;;;;;;5.69;73.11;102103.00;5046934;28;20029;-67
2023/01/31 09:15:59;;;;;;;16.13;7.00;;;;;;;5.68;73.70;102109.56;5040332;28;20075;-67
2023/01/31 09:18:25;;;;;;;17.27;7.20;;;;;;;5.73;72.90;102108.97;5046670;28;20033;-67
2023/01/31 09:20:51;;;;;;;21.73;6.53;;;;;;;5.75;73.58;102102.25;5050626;28;20075;-69
2023/01/31 09:23:18;;;;;;;21.50;6.75;;;;;;;5.79;73.21;102106.31;5037807;28;20103;-68
2023/01/31 09:25:43;;;;;;;17.38;7.15;;;;;;;5.78;73.24;102103.78;5042227;28;20032;-67
2023/01/31 09:28:08;;;;;;;20.35;7.20;;;;;;;5.80;73.77;102094.25;5048550;28;20083;-66
2023/01/31 09:30:34;;;;;;;19.67;7.13;;;;;;;5.86;73.80;102078.88;5052539;28;20415;-68
2023/01/31 09:33:00;;;;;;;21.38;7.18;;;;;;;5.90;73.79;102082.94;5040520;28;20021;-67
2023/01/31 09:35:26;;;;;;;19.58;7.60;;;;;;;5.94;73.99;102087.06;5030142;28;20644;-67
2023/01/31 09:37:51;;;;;;;22.65;6.95;;;;;;;5.98;73.65;102084.78;5032675;28;20131;-67
2023/01/31 09:40:25;;;;;;;19.33;6.53;;;;;;;6.05;73.47;102089.31;5046953;28;20112;-68
2023/01/31 09:42:53;;;;;;;20.73;6.90;;;;;;;6.04;73.61;102095.88;5041247;28;20040;-71
2023/01/31 09:45:32;;;;;;;19.10;7.35;;;;;;;6.09;74.08;102098.91;5037684;28;20063;-69
2023/01/31 09:48:00;;;;;;;18.10;6.40;;;;;;;6.12;73.40;102100.41;5042217;28;20032;-66
2023/01/31 09:50:39;;;;;;;19.27;7.18;;;;;;;6.19;73.81;102084.81;5034991;28;20061;-68
2023/01/31 09:53:04;;;;;;;17.80;8.88;;;;;;;6.27;74.21;102083.84;5041756;28;20063;-67
2023/01/31 09:55:54;;;;;;;24.73;8.73;;;;;;;6.43;73.18;102085.50;5042909;28;20108;-69
2023/01/31 09:58:40;;;;;;;21.08;7.28;;;;;;;6.54;73.89;102087.75;5045197;28;20105;-67
2023/01/31 10:01:28;;;;;;;15.77;6.65;;;;;;;6.57;73.83;102092.88;5045879;28;20091;-68
2023/01/31 10:04:19;;;;;;;19.67;6.78;;;;;;;6.59;73.23;102093.53;5042956;28;20069;-68
2023/01/31 10:06:57;;;;;;;20.40;6.75;;;;;;;6.60;72.79;102098.84;5036648;28;20040;-69
2023/01/31 10:09:36;;;;;;;21.92;6.82;;;;;;;6.58;72.56;102094.56;5045808;28;20026;-69
2023/01/31 10:12:19;;;;;;;18.00;6.97;;;;;;;6.56;72.55;102092.03;5031985;28;20028;-69
2023/01/31 10:14:50;;;;;;;23.30;6.93;;;;;;;6.54;73.19;102099.63;5049755;28;20131;-70
2023/01/31 10:17:21;;;;;;;20.80;7.18;;;;;;;6.51;73.79;102100.00;5050916;28;20036;-69
2023/01/31 10:19:56;;;;;;;20.55;8.57;;;;;;;6.50;73.00;102080.91;5032443;28;20087;-69
2023/01/31 10:22:40;;;;;;;20.67;8.27;;;;;;;6.47;73.69;102073.03;5031833;28;20115;-69
2023/01/31 10:25:25;;;;;;;21.55;8.90;;;;;;;6.49;73.79;102066.28;5031735;28;20034;-70
2023/01/31 10:27:56;;;;;;;23.75;9.35;;;;;;;6.42;74.13;102065.34;5031465;28;20025;-69
2023/01/31 10:30:32;;;;;;;20.83;9.45;;;;;;;6.44;74.05;102066.00;5032115;28;20021;-69
2023/01/31 10:33:21;;;;;;;23.70;9.90;;;;;;;6.45;73.97;102076.00;5039229;28;20029;-69
2023/01/31 10:35:53;;;;;;;28.02;11.50;;;;;;;6.43;74.37;102079.97;5052012;28;20021;-69
2023/01/31 10:38:25;;;;;;;23.25;11.00;;;;;;;6.45;74.08;102094.44;5050022;28;20590;-69
2023/01/31 10:40:58;;;;;;;23.92;11.60;;;;;;;6.43;74.39;102086.34;5050747;28;20049;-69
2023/01/31 10:43:58;;;;;;;25.45;13.23;;;;;;;6.46;74.89;102088.72;5051795;28;20040;-69
2023/01/31 10:46:23;;;;;;;24.52;14.20;;;;;;;6.45;75.46;102083.41;5047787;28;20044;-69
2023/01/31 10:48:49;;;;;;;22.23;12.68;;;;;;;6.50;75.29;102075.41;5050701;28;20480;-69
2023/01/31 10:51:21;;;;;;;28.00;13.95;;;;;;;6.53;75.33;102075.00;5051344;28;20053;-70
2023/01/31 10:54:03;;;;;;;32.78;16.75;;;;;;;6.51;75.52;102060.56;5042881;28;20043;-69
2023/01/31 10:56:31;;;;;;;29.27;15.63;;;;;;;6.50;75.63;102059.69;5051965;28;20032;-69
2023/01/31 10:58:58;;;;;;;31.08;15.55;;;;;;;6.54;74.83;102060.16;5050849;28;20052;-69
2023/01/31 11:01:24;;;;;;;32.85;15.95;;;;;;;6.55;74.96;102078.41;5051222;28;20024;-69
2023/01/31 11:03:55;;;;;;;29.38;16.33;;;;;;;6.49;75.92;102046.97;5047559;28;20040;-69
2023/01/31 11:06:21;;;;;;;31.27;17.08;;;;;;;6.53;75.63;102056.56;5050444;28;20133;-69
2023/01/31 11:08:50;;;;;;;31.00;15.13;;;;;;;6.55;75.80;102048.91;5050174;28;20028;-69
2023/01/31 11:11:18;;;;;;;31.63;16.75;;;;;;;6.57;75.34;102060.63;5051110;28;20484;-69
2023/01/31 11:14:06;;;;;;;27.90;15.10;;;;;;;6.65;75.17;102043.09;5050323;28;20460;-69
2023/01/31 11:16:39;;;;;;;26.48;15.48;;;;;;;6.69;75.15;102032.50;5051241;28;20075;-69
2023/01/31 11:19:39;;;;;;;30.65;14.30;;;;;;;6.70;75.16;102031.44;5050870;28;20132;-69
2023/01/31 11:22:06;;;;;;;30.33;14.32;;;;;;;6.71;75.02;102024.88;5032825;28;20052;-69
2023/01/31 11:24:33;;;;;;;25.85;14.52;;;;;;;6.72;75.27;102023.81;5031233;28;20051;-69
2023/01/31 11:27:01;;;;;;;22.40;13.70;;;;;;;6.73;76.43;102017.25;5033263;28;20024;-66
2023/01/31 11:29:34;;;;;;;21.95;12.90;;;;;;;6.74;75.81;101999.66;5046996;28;20116;-69
2023/01/31 11:32:04;;;;;;;28.55;14.35;;;;;;;6.77;75.31;102008.38;5040930;28;20086;-68
2023/01/31 11:34:30;;;;;;;31.40;13.82;;;;;;;6.80;75.46;102004.38;5049632;28;20087;-69
2023/01/31 11:37:13;;;;;;;23.13;13.20;;;;;;;6.82;75.84;102008.63;5049259;28;20033;-68
2023/01/31 11:39:39;;;;;;;24.70;12.40;;;;;;;6.86;75.67;102014.59;5042240;28;20041;-67